Time;durP1;ratioP1;P1;durP2;ratioP2;P2;SDS_P1;SDS_P2;PMS_P1;PMS_P2;Temp;Humidity;BMP_temperature;BMP_pressure;BME280_temperature;BME280_humidity;BME280_pressure;Samples;Min_cycle;Max_cycle;Signal;HPM_P1;HPM_P2
2023/05/05 00:01:49;;;;;;;11.45;3.60;;;13.10;99.90;;;;;;5118039;28;20114;-72
2023/05/05 00:04:16;;;;;;;10.40;2.92;;;13.00;99.90;;;;;;5117970;28;20448;-72
2023/05/05 00:06:42;;;;;;;7.65;3.33;;;13.00;99.90;;;;;;5118039;28;20043;-72
2023/05/05 00:09:07;;;;;;;7.27;2.70;;;13.00;99.90;;;;;;5117995;28;20087;-72
2023/05/05 00:11:33;;;;;;;5.80;2.95;;;13.00;99.90;;;;;;5117776;28;20027;-71
2023/05/05 00:13:59;;;;;;;6.10;2.93;;;12.90;99.90;;;;;;5117884;28;20073;-72
2023/05/05 00:16:24;;;;;;;5.68;3.33;;;12.90;99.90;;;;;;5117765;28;20039;-72
2023/05/05 00:18:50;;;;;;;4.45;2.75;;;12.90;99.90;;;;;;5118246;28;20064;-72
2023/05/05 00:21:16;;;;;;;7.13;3.40;;;12.90;99.90;;;;;;5117768;28;20380;-72
2023/05/05 00:23:41;;;;;;;8.20;3.50;;;12.80;99.90;;;;;;5118052;28;20463;-72
2023/05/05 00:26:07;;;;;;;6.82;3.58;;;12.90;99.90;;;;;;5117628;28;20497;-72
2023/05/05 00:28:33;;;;;;;4.90;2.95;;;12.90;99.90;;;;;;5117750;28;20046;-72
2023/05/05 00:30:58;;;;;;;7.30;3.20;;;13.30;99.90;;;;;;5117520;28;20048;-72
2023/05/05 00:33:24;;;;;;;7.28;3.78;;;12.80;99.90;;;;;;5117542;27;20126;-72
2023/05/05 00:35:50;;;;;;;8.23;3.42;;;12.80;99.90;;;;;;5117528;28;20040;-72
2023/05/05 00:38:16;;;;;;;7.47;3.38;;;12.80;99.90;;;;;;5117466;28;20047;-71
2023/05/05 00:40:42;;;;;;;6.80;3.03;;;12.80;99.90;;;;;;5117681;28;20536;-71
2023/05/05 00:43:07;;;;;;;4.85;3.10;;;12.90;99.90;;;;;;5117399;28;20126;-72
2023/05/05 00:45:35;;;;;;;7.57;3.37;;;12.90;99.90;;;;;;5117136;28;20073;-71
2023/05/05 00:48:01;;;;;;;5.43;3.28;;;12.80;99.90;;;;;;5117237;28;20051;-72
2023/05/05 00:50:29;;;;;;;5.13;3.37;;;12.90;99.90;;;;;;5117126;28;20356;-72
2023/05/05 00:53:02;;;;;;;7.22;3.50;;;12.90;99.90;;;;;;5117153;28;20032;-72
2023/05/05 00:55:29;;;;;;;6.32;3.42;;;12.80;99.90;;;;;;5117305;28;20090;-72
2023/05/05 00:57:56;;;;;;;4.55;3.17;;;12.80;99.90;;;;;;5117060;27;20039;-71
2023/05/05 01:00:22;;;;;;;6.80;3.40;;;12.90;99.90;;;;;;5116657;28;20394;-72
2023/05/05 01:02:47;;;;;;;6.37;3.60;;;12.80;99.90;;;;;;5116957;28;20036;-72
2023/05/05 01:05:15;;;;;;;6.20;3.70;;;12.80;99.90;;;;;;5117210;28;20535;-71
2023/05/05 01:07:54;;;;;;;5.70;3.35;;;12.80;99.90;;;;;;5115980;28;20122;-71
2023/05/05 01:10:22;;;;;;;6.65;3.05;;;12.80;99.90;;;;;;5117221;28;20367;-71
2023/05/05 01:13:09;;;;;;;8.48;3.58;;;12.80;99.90;;;;;;5116675;28;20036;-72
2023/05/05 01:15:46;;;;;;;7.95;3.03;;;12.70;99.90;;;;;;5117121;28;20035;-72
2023/05/05 01:18:32;;;;;;;6.18;3.10;;;12.70;99.90;;;;;;5116741;28;20039;-72
2023/05/05 01:21:22;;;;;;;5.47;3.10;;;12.70;99.90;;;;;;5116700;28;20046;-72
2023/05/05 01:24:09;;;;;;;7.90;3.03;;;12.70;99.90;;;;;;5116483;28;20046;-72
2023/05/05 01:26:57;;;;;;;6.30;3.33;;;12.70;99.90;;;;;;5116456;28;20062;-71
2023/05/05 01:29:35;;;;;;;;;;;12.60;99.90;;;;;;5116937;28;20127;-72
2023/05/05 01:32:06;;;;;;;6.22;3.42;;;12.70;99.90;;;;;;5116136;28;20389;-72
2023/05/05 01:34:42;;;;;;;8.32;3.30;;;12.60;99.90;;;;;;5116332;28;20042;-72
2023/05/05 01:37:19;;;;;;;7.05;3.25;;;12.70;99.90;;;;;;5116328;28;20484;-72
2023/05/05 01:39:47;;;;;;;7.88;3.22;;;12.60;99.90;;;;;;5116284;28;20398;-71
2023/05/05 01:42:13;;;;;;;5.97;2.92;;;12.70;99.90;;;;;;5116184;28;20517;-72
2023/05/05 01:44:42;;;;;;;7.68;3.20;;;12.70;99.90;;;;;;5116157;28;20414;-71
2023/05/05 01:47:11;;;;;;;6.22;3.08;;;12.60;99.90;;;;;;5116094;28;20051;-71
2023/05/05 01:49:37;;;;;;;9.50;3.35;;;12.60;99.90;;;;;;5115995;28;20039;-71
2023/05/05 01:52:04;;;;;;;8.77;3.45;;;12.60;99.90;;;;;;5116094;28;20044;-71
2023/05/05 01:54:33;;;;;;;6.65;3.30;;;12.60;99.90;;;;;;5115866;28;20079;-71
2023/05/05 01:57:03;;;;;;;7.78;3.10;;;12.60;99.90;;;;;;5116321;28;20422;-72
2023/05/05 01:59:30;;;;;;;7.40;3.40;;;12.60;99.90;;;;;;5115935;28;20529;-72
2023/05/05 02:01:57;;;;;;;;;;;12.60;99.90;;;;;;5116519;28;20036;-71
2023/05/05 02:04:24;;;;;;;5.20;3.35;;;12.60;99.90;;;;;;5115385;28;19915;-72
2023/05/05 02:06:51;;;;;;;8.73;3.72;;;12.60;99.90;;;;;;5115271;28;20044;-71
2023/05/05 02:09:19;;;;;;;6.55;3.05;;;12.60;99.90;;;;;;5115600;28;20114;-71
2023/05/05 02:11:44;;;;;;;5.70;2.85;;;12.60;99.90;;;;;;5115657;28;20108;-71
2023/05/05 02:14:11;;;;;;;6.20;3.37;;;12.50;99.90;;;;;;5115607;28;20466;-71
2023/05/05 02:16:40;;;;;;;6.90;3.33;;;12.50;99.90;;;;;;5115694;28;20039;-72
2023/05/05 02:19:06;;;;;;;5.50;3.22;;;12.50;99.90;;;;;;5115735;28;20047;-72
2023/05/05 02:21:33;;;;;;;5.95;3.30;;;12.50;99.90;;;;;;5115401;28;20471;-72
2023/05/05 02:23:59;;;;;;;5.95;2.90;;;12.40;99.90;;;;;;5115279;28;20046;-71
2023/05/05 02:26:25;;;;;;;8.77;3.88;;;12.40;99.90;;;;;;5115797;28;20379;-71
2023/05/05 02:29:13;;;;;;;4.72;3.33;;;12.40;99.90;;;;;;5115131;28;20494;-71
2023/05/05 02:31:42;;;;;;;;;;;12.40;99.90;;;;;;5115276;28;20036;-72
2023/05/05 02:34:08;;;;;;;6.25;2.97;;;12.30;99.90;;;;;;5115510;28;19915;-71
2023/05/05 02:36:38;;;;;;;5.32;3.40;;;12.30;99.90;;;;;;5115160;28;20533;-72
2023/05/05 02:39:11;;;;;;;6.72;3.35;;;12.30;99.90;;;;;;5115094;28;20040;-71
2023/05/05 02:41:38;;;;;;;7.45;3.70;;;12.20;99.90;;;;;;5115110;28;20498;-72
2023/05/05 02:44:07;;;;;;;5.20;3.60;;;12.10;99.90;;;;;;5114922;27;20035;-71
2023/05/05 02:46:32;;;;;;;6.78;3.60;;;12.10;99.90;;;;;;5114933;28;20036;-72
2023/05/05 02:48:58;;;;;;;7.03;3.30;;;12.40;99.90;;;;;;5114872;28;20042;-72
2023/05/05 02:51:24;;;;;;;4.75;3.40;;;12.10;99.90;;;;;;5115068;28;20047;-71
2023/05/05 02:53:51;;;;;;;5.10;3.20;;;12.00;99.90;;;;;;5114838;28;20039;-71
2023/05/05 02:56:36;;;;;;;7.47;3.78;;;12.00;99.90;;;;;;5114742;28;20123;-72
2023/05/05 02:59:46;;;;;;;8.90;3.80;;;12.00;99.90;;;;;;5114826;28;20043;-72
2023/05/05 03:02:17;;;;;;;5.78;3.63;;;12.00;99.90;;;;;;5114715;28;20031;-72
2023/05/05 03:04:55;;;;;;;7.00;3.80;;;11.90;99.90;;;;;;5115059;28;20043;-71
2023/05/05 03:07:40;;;;;;;4.93;3.30;;;12.00;99.90;;;;;;5114707;28;20047;-72
2023/05/05 03:10:10;;;;;;;6.38;3.47;;;12.00;99.90;;;;;;5114604;28;20051;-71
2023/05/05 03:12:51;;;;;;;6.28;3.40;;;12.00;99.90;;;;;;5114940;28;20043;-72
2023/05/05 03:15:18;;;;;;;5.93;3.33;;;12.00;99.90;;;;;;5114586;28;20075;-71
2023/05/05 03:17:45;;;;;;;4.60;3.30;;;12.00;99.90;;;;;;5113909;28;20554;-71
2023/05/05 03:20:12;;;;;;;9.25;4.25;;;12.00;99.90;;;;;;5113673;28;20086;-72
2023/05/05 03:22:38;;;;;;;7.35;3.25;;;12.00;99.90;;;;;;5114012;28;20197;-72
2023/05/05 03:25:05;;;;;;;5.78;3.35;;;12.00;99.90;;;;;;5114662;28;20122;-71
2023/05/05 03:27:30;;;;;;;8.25;3.47;;;11.90;99.90;;;;;;5114603;28;20084;-72
2023/05/05 03:29:56;;;;;;;6.60;3.25;;;11.90;99.90;;;;;;5114267;28;20039;-71
2023/05/05 03:32:22;;;;;;;7.80;3.67;;;11.80;99.90;;;;;;5114276;28;20036;-72
2023/05/05 03:34:48;;;;;;;7.65;3.83;;;11.80;99.90;;;;;;5114002;28;20055;-72
2023/05/05 03:37:14;;;;;;;5.75;3.33;;;11.70;99.90;;;;;;5114183;28;20031;-72
2023/05/05 03:39:40;;;;;;;3.80;3.28;;;11.70;99.90;;;;;;5114222;28;20073;-71
2023/05/05 03:42:05;;;;;;;7.68;3.53;;;11.70;99.90;;;;;;5114191;28;20083;-73
2023/05/05 03:44:31;;;;;;;8.27;3.15;;;11.70;99.90;;;;;;5113825;28;20127;-72
2023/05/05 03:46:56;;;;;;;8.40;3.40;;;11.70;99.90;;;;;;5114031;28;20039;-72
2023/05/05 03:49:22;;;;;;;5.10;3.28;;;11.70;99.90;;;;;;5114120;28;20042;-72
2023/05/05 03:51:47;;;;;;;7.82;3.15;;;11.70;99.90;;;;;;5114019;28;20040;-71
2023/05/05 03:54:13;;;;;;;5.03;3.38;;;11.70;99.90;;;;;;5113730;28;20468;-74
2023/05/05 03:56:39;;;;;;;6.03;3.10;;;11.70;99.90;;;;;;5113695;28;20042;-72
2023/05/05 03:59:05;;;;;;;7.65;3.58;;;11.70;99.90;;;;;;5113919;28;20043;-72
2023/05/05 04:01:31;;;;;;;7.15;3.40;;;11.80;99.90;;;;;;5114171;28;20051;-71
2023/05/05 04:03:56;;;;;;;11.02;4.47;;;11.80;99.90;;;;;;5114016;28;20113;-72
2023/05/05 04:06:22;;;;;;;7.03;4.03;;;11.80;99.90;;;;;;5113867;28;20126;-72
2023/05/05 04:08:48;;;;;;;11.32;4.13;;;11.80;99.90;;;;;;5113965;28;20352;-73
2023/05/05 04:11:13;;;;;;;10.60;4.72;;;11.80;99.90;;;;;;5113868;28;20036;-73
2023/05/05 04:13:40;;;;;;;7.38;3.95;;;11.80;99.90;;;;;;5113806;28;20046;-73
2023/05/05 04:16:06;;;;;;;11.73;5.32;;;11.70;99.90;;;;;;5113841;28;20094;-73
2023/05/05 04:18:31;;;;;;;12.07;4.63;;;11.70;99.90;;;;;;5113523;28;20040;-75
2023/05/05 04:20:57;;;;;;;10.15;4.30;;;11.60;99.90;;;;;;5112557;28;20043;-73
2023/05/05 04:23:22;;;;;;;6.70;4.70;;;11.90;99.90;;;;;;5113798;28;20046;-73
2023/05/05 04:25:48;;;;;;;8.23;5.18;;;11.50;99.90;;;;;;5113412;28;20038;-72
2023/05/05 04:28:13;;;;;;;12.38;5.35;;;11.70;99.90;;;;;;5112503;28;20482;-73
2023/05/05 04:30:39;;;;;;;9.27;4.88;;;11.30;99.90;;;;;;5115740;28;20071;-76
2023/05/05 04:33:05;;;;;;;7.75;5.10;;;11.20;99.90;;;;;;5116719;28;20035;-71
2023/05/05 04:35:31;;;;;;;9.38;5.45;;;11.20;99.90;;;;;;5117204;28;20032;-72
2023/05/05 04:37:56;;;;;;;8.43;4.75;;;11.10;99.90;;;;;;5115254;28;20535;-70
2023/05/05 04:40:22;;;;;;;6.00;4.60;;;11.10;99.90;;;;;;5117459;28;20520;-71
2023/05/05 04:42:47;;;;;;;8.93;5.72;;;11.10;99.90;;;;;;5116240;28;20149;-71
2023/05/05 04:45:13;;;;;;;7.15;4.70;;;11.00;99.90;;;;;;5117303;28;20046;-70
2023/05/05 04:47:39;;;;;;;8.68;5.20;;;11.00;99.90;;;;;;5117330;28;20486;-72
2023/05/05 04:50:05;;;;;;;7.70;4.57;;;11.00;99.90;;;;;;5116036;28;20038;-70
2023/05/05 04:52:31;;;;;;;10.98;4.60;;;11.00;99.90;;;;;;5117102;28;20120;-72
2023/05/05 04:54:57;;;;;;;8.52;4.63;;;11.00;99.90;;;;;;5117185;28;20075;-71
2023/05/05 04:57:22;;;;;;;7.13;5.15;;;11.00;99.90;;;;;;5117379;28;20479;-72
2023/05/05 04:59:48;;;;;;;8.13;4.82;;;11.00;99.90;;;;;;5117238;28;20122;-71
2023/05/05 05:02:13;;;;;;;7.32;4.85;;;11.00;99.90;;;;;;5116742;28;20108;-69
2023/05/05 05:04:40;;;;;;;6.88;4.50;;;11.00;99.90;;;;;;5117475;28;20047;-72
2023/05/05 05:07:05;;;;;;;9.27;4.67;;;11.00;99.90;;;;;;5117009;28;20047;-71
2023/05/05 05:09:31;;;;;;;9.98;4.85;;;11.00;99.90;;;;;;5116917;28;20089;-73
2023/05/05 05:12:03;;;;;;;6.82;4.53;;;11.00;99.90;;;;;;5116845;28;20050;-70
2023/05/05 05:14:29;;;;;;;9.05;5.45;;;11.00;99.90;;;;;;5117092;28;20035;-71
2023/05/05 05:16:54;;;;;;;7.90;5.05;;;11.00;99.90;;;;;;5116871;28;20036;-72
2023/05/05 05:19:20;;;;;;;8.50;4.53;;;11.10;99.90;;;;;;5116728;28;20460;-71
2023/05/05 05:21:46;;;;;;;7.75;4.68;;;11.10;99.90;;;;;;5116632;28;20065;-70
2023/05/05 05:24:11;;;;;;;8.05;4.93;;;11.10;99.90;;;;;;5116208;28;20531;-70
2023/05/05 05:26:37;;;;;;;5.90;4.18;;;11.10;99.90;;;;;;5116413;28;20044;-70
2023/05/05 05:29:03;;;;;;;10.18;4.47;;;11.10;99.90;;;;;;5116456;28;20036;-70
2023/05/05 05:31:29;;;;;;;6.30;4.37;;;11.10;99.90;;;;;;5116467;28;20054;-70
2023/05/05 05:33:55;;;;;;;6.70;4.50;;;11.10;99.90;;;;;;5116345;28;20039;-70
2023/05/05 05:36:21;;;;;;;8.27;5.35;;;11.20;99.90;;;;;;5116728;28;20596;-70
2023/05/05 05:38:46;;;;;;;5.28;4.25;;;11.20;99.90;;;;;;5116334;28;20058;-70
2023/05/05 05:41:12;;;;;;;6.45;4.30;;;11.40;99.90;;;;;;5115607;28;20080;-70
2023/05/05 05:43:38;;;;;;;8.75;4.57;;;11.20;99.90;;;;;;5116060;28;20127;-70
2023/05/05 05:46:03;;;;;;;8.75;5.10;;;11.20;99.90;;;;;;5116093;28;20126;-70
2023/05/05 05:48:32;;;;;;;6.47;4.55;;;11.30;99.90;;;;;;5116159;28;20047;-72
2023/05/05 05:50:57;;;;;;;9.25;5.07;;;11.30;99.90;;;;;;5116000;28;20049;-69
2023/05/05 05:53:23;;;;;;;8.32;5.00;;;12.00;99.90;;;;;;5116263;28;20035;-70
2023/05/05 05:55:49;;;;;;;7.88;5.22;;;11.50;99.90;;;;;;5114741;28;20047;-71
2023/05/05 05:58:15;;;;;;;6.43;4.63;;;11.60;99.90;;;;;;5116002;28;20340;-72
2023/05/05 06:00:42;;;;;;;6.18;4.43;;;11.70;99.90;;;;;;5116010;28;20071;-70
2023/05/05 06:03:07;;;;;;;7.87;4.60;;;12.20;99.90;;;;;;5115979;28;20055;-70
2023/05/05 06:05:33;;;;;;;7.47;4.95;;;11.80;99.90;;;;;;5115594;28;20320;-71
2023/05/05 06:07:58;;;;;;;8.95;5.20;;;11.90;99.90;;;;;;5115747;28;20130;-71
2023/05/05 06:10:24;;;;;;;6.57;4.57;;;12.00;99.90;;;;;;5115740;28;20047;-70
2023/05/05 06:12:50;;;;;;;11.20;4.07;;;12.10;99.90;;;;;;5115940;28;20040;-71
2023/05/05 06:15:15;;;;;;;6.15;4.28;;;12.10;99.90;;;;;;5115649;28;20040;-70
2023/05/05 06:17:41;;;;;;;6.38;4.63;;;12.20;99.90;;;;;;5115565;28;20042;-72
2023/05/05 06:20:07;;;;;;;8.52;4.57;;;12.20;99.90;;;;;;5115401;28;20349;-70
2023/05/05 06:22:33;;;;;;;7.43;5.47;;;12.20;99.90;;;;;;5115433;28;20065;-69
2023/05/05 06:24:58;;;;;;;8.93;4.40;;;12.30;99.90;;;;;;5114268;28;20047;-69
2023/05/05 06:27:24;;;;;;;6.13;4.43;;;12.20;99.90;;;;;;5115450;28;20031;-70
2023/05/05 06:29:50;;;;;;;7.00;4.63;;;12.30;99.90;;;;;;5115505;28;20048;-70
2023/05/05 06:32:15;;;;;;;9.18;4.95;;;12.30;99.90;;;;;;5115455;28;20463;-70
2023/05/05 06:34:43;;;;;;;14.90;5.20;;;12.30;99.90;;;;;;5113972;28;20075;-70
2023/05/05 06:37:09;;;;;;;6.80;5.05;;;12.40;99.90;;;;;;5114831;28;20490;-70
2023/05/05 06:39:35;;;;;;;6.97;4.80;;;12.40;99.90;;;;;;5115508;28;20064;-70
2023/05/05 06:42:00;;;;;;;8.32;4.78;;;12.50;99.90;;;;;;5113923;28;20073;-70
2023/05/05 06:44:27;;;;;;;6.28;4.55;;;12.70;99.90;;;;;;5115020;28;20035;-72
2023/05/05 06:46:53;;;;;;;9.77;5.57;;;13.00;99.90;;;;;;5114913;28;20043;-70
2023/05/05 06:49:18;;;;;;;8.93;4.80;;;13.10;99.90;;;;;;5114994;28;20072;-69
2023/05/05 06:51:44;;;;;;;6.15;4.78;;;13.40;99.90;;;;;;5115334;28;20118;-70
2023/05/05 06:54:09;;;;;;;6.45;5.13;;;13.60;99.90;;;;;;5114851;28;20071;-69
2023/05/05 06:56:35;;;;;;;6.03;4.43;;;13.70;99.90;;;;;;5114837;28;20065;-70
2023/05/05 06:59:01;;;;;;;7.38;5.40;;;13.70;99.90;;;;;;5114808;28;20043;-70
2023/05/05 07:01:26;;;;;;;8.50;4.82;;;13.60;99.90;;;;;;5114801;28;20079;-70
2023/05/05 07:03:52;;;;;;;10.95;4.97;;;13.70;99.90;;;;;;5114293;28;20083;-70
2023/05/05 07:06:17;;;;;;;8.13;5.47;;;13.70;99.90;;;;;;5114536;28;20035;-69
2023/05/05 07:08:43;;;;;;;7.05;5.10;;;13.80;99.90;;;;;;5115059;28;20043;-70
2023/05/05 07:11:09;;;;;;;6.88;4.93;;;14.20;99.90;;;;;;5114931;28;20071;-70
2023/05/05 07:13:34;;;;;;;8.25;5.20;;;14.20;99.90;;;;;;5114580;28;20433;-70
2023/05/05 07:16:00;;;;;;;8.60;5.30;;;14.30;99.90;;;;;;5114462;28;20126;-70
2023/05/05 07:18:25;;;;;;;10.00;5.30;;;14.40;99.90;;;;;;5113290;28;20047;-70
2023/05/05 07:20:51;;;;;;;8.67;5.87;;;14.50;99.90;;;;;;5114386;28;20031;-70
2023/05/05 07:23:16;;;;;;;10.83;5.80;;;14.60;99.90;;;;;;5114327;28;20490;-70
2023/05/05 07:25:42;;;;;;;5.75;5.15;;;14.70;99.90;;;;;;5113239;28;20493;-70
2023/05/05 07:28:08;;;;;;;8.83;6.00;;;14.80;99.90;;;;;;5113165;28;20039;-70
2023/05/05 07:30:34;;;;;;;9.73;4.87;;;14.90;99.90;;;;;;5114305;28;20053;-70
2023/05/05 07:33:00;;;;;;;5.53;4.85;;;15.00;99.90;;;;;;5114274;28;20043;-70
2023/05/05 07:35:26;;;;;;;11.67;5.10;;;15.10;99.90;;;;;;5114150;28;20067;-70
2023/05/05 07:37:52;;;;;;;10.52;5.15;;;15.20;99.90;;;;;;5113932;28;20047;-70
2023/05/05 07:40:17;;;;;;;10.60;5.93;;;15.40;99.90;;;;;;5114179;28;20028;-70
2023/05/05 07:42:43;;;;;;;9.95;5.30;;;15.50;99.90;;;;;;5114420;28;20088;-70
2023/05/05 07:45:09;;;;;;;8.10;5.65;;;15.60;99.90;;;;;;5112942;28;20063;-70
2023/05/05 07:47:34;;;;;;;12.85;6.45;;;15.70;99.90;;;;;;5114104;28;20035;-70
2023/05/05 07:50:00;;;;;;;7.30;5.77;;;15.80;99.90;;;;;;5114036;28;20036;-70
2023/05/05 07:52:26;;;;;;;7.43;5.50;;;15.90;99.90;;;;;;5114017;28;20044;-70
2023/05/05 07:54:52;;;;;;;15.32;6.03;;;16.10;99.90;;;;;;5113874;28;20036;-70
2023/05/05 07:57:17;;;;;;;9.73;5.88;;;16.00;99.90;;;;;;5114080;28;20080;-70
2023/05/05 07:59:43;;;;;;;11.97;5.67;;;16.20;99.90;;;;;;5114175;28;20435;-70
2023/05/05 08:02:11;;;;;;;10.23;6.00;;;16.20;99.90;;;;;;5114063;28;20463;-70
2023/05/05 08:04:40;;;;;;;8.90;5.85;;;16.30;99.90;;;;;;5114698;28;20047;-70
2023/05/05 08:07:07;;;;;;;8.68;6.18;;;16.40;99.90;;;;;;5118061;28;20047;-70
2023/05/05 08:09:33;;;;;;;10.30;6.32;;;16.50;99.90;;;;;;5118240;28;20421;-70
2023/05/05 08:12:00;;;;;;;13.32;6.18;;;16.50;99.90;;;;;;5116686;28;20466;-70
2023/05/05 08:14:25;;;;;;;10.90;7.00;;;16.60;99.90;;;;;;5117961;28;20075;-70
2023/05/05 08:16:51;;;;;;;10.67;6.87;;;16.70;99.90;;;;;;5117926;28;20077;-70
2023/05/05 08:19:18;;;;;;;10.67;6.87;;;16.80;99.90;;;;;;5117755;28;20048;-70
2023/05/05 08:21:43;;;;;;;7.55;6.28;;;16.90;99.90;;;;;;5116829;28;20047;-70
2023/05/05 08:24:09;;;;;;;11.23;7.13;;;17.10;99.90;;;;;;5117653;28;20127;-70
2023/05/05 08:26:35;;;;;;;9.30;6.80;;;17.30;99.90;;;;;;5117731;28;20180;-70
2023/05/05 08:29:00;;;;;;;8.80;6.77;;;17.40;99.90;;;;;;5117793;28;20040;-70
2023/05/05 08:31:33;;;;;;;9.20;6.80;;;17.50;99.90;;;;;;5117618;28;20483;-70
2023/05/05 08:33:58;;;;;;;13.68;6.97;;;17.70;99.90;;;;;;5117471;28;20046;-70
2023/05/05 08:36:24;;;;;;;9.40;7.13;;;17.80;99.90;;;;;;5117544;28;20031;-70
2023/05/05 08:38:49;;;;;;;10.07;7.37;;;18.00;99.90;;;;;;5117228;28;20044;-70
2023/05/05 08:41:17;;;;;;;10.73;7.33;;;18.10;99.90;;;;;;5117443;28;20040;-70
2023/05/05 08:43:45;;;;;;;10.75;7.57;;;18.20;99.90;;;;;;5117408;28;20094;-70
2023/05/05 08:46:13;;;;;;;9.93;7.32;;;18.40;99.90;;;;;;5116980;28;20046;-70
2023/05/05 08:48:41;;;;;;;9.95;7.15;;;18.40;99.90;;;;;;5117299;28;20068;-70
2023/05/05 08:51:08;;;;;;;11.13;7.07;;;18.50;99.90;;;;;;5117235;28;20078;-70
2023/05/05 08:54:01;;;;;;;10.73;7.15;;;18.50;99.90;;;;;;5117698;28;20381;-70
2023/05/05 08:56:32;;;;;;;11.70;6.28;;;18.70;99.90;;;;;;5117266;28;20081;-70
2023/05/05 08:58:59;;;;;;;10.15;6.75;;;18.80;99.90;;;;;;5117080;28;20043;-70
2023/05/05 09:01:26;;;;;;;10.52;7.43;;;18.90;99.90;;;;;;5117574;28;20043;-70
2023/05/05 09:03:52;;;;;;;10.20;7.15;;;19.00;99.90;;;;;;5116773;28;20491;-70
2023/05/05 09:06:21;;;;;;;9.95;6.60;;;19.20;99.90;;;;;;5116909;28;20044;-70
2023/05/05 09:08:48;;;;;;;10.52;7.18;;;19.20;99.90;;;;;;5116962;28;20075;-70
2023/05/05 09:11:13;;;;;;;;;;;19.30;99.90;;;;;;5117400;28;20043;-71
2023/05/05 09:13:39;;;;;;;9.38;7.00;;;19.40;99.90;;;;;;5116770;28;19967;-71
2023/05/05 09:16:05;;;;;;;11.07;6.47;;;19.50;99.90;;;;;;5115907;28;20046;-71
2023/05/05 09:18:31;;;;;;;9.13;6.38;;;19.70;99.90;;;;;;5116443;28;20482;-70
2023/05/05 09:20:58;;;;;;;9.87;6.27;;;19.80;99.90;;;;;;5116928;28;20130;-70
2023/05/05 09:23:23;;;;;;;9.85;6.40;;;19.90;99.90;;;;;;5116637;28;20473;-70
2023/05/05 09:26:03;;;;;;;10.87;6.30;;;20.20;99.90;;;;;;5116552;28;20032;-71
2023/05/05 09:28:29;;;;;;;11.15;6.50;;;20.20;99.90;;;;;;5116994;28;20533;-71
2023/05/05 09:30:54;;;;;;;10.97;7.03;;;20.20;99.90;;;;;;5116411;28;20039;-70
2023/05/05 09:33:30;;;;;;;10.83;6.77;;;20.30;99.90;;;;;;5116464;28;20044;-70
2023/05/05 09:35:56;;;;;;;10.13;6.85;;;20.40;99.90;;;;;;5116288;28;20513;-70
2023/05/05 09:38:23;;;;;;;8.90;6.80;;;20.40;99.90;;;;;;5116437;27;20039;-71
2023/05/05 09:40:50;;;;;;;11.32;6.80;;;20.50;99.90;;;;;;5116238;28;20035;-71
2023/05/05 09:43:18;;;;;;;10.38;6.72;;;20.50;99.90;;;;;;5116282;28;20028;-71
2023/05/05 09:45:44;;;;;;;9.98;7.03;;;20.60;99.90;;;;;;5116164;28;20045;-71
2023/05/05 09:48:25;;;;;;;10.50;6.97;;;20.60;99.90;;;;;;5115928;28;20040;-71
2023/05/05 09:50:51;;;;;;;9.32;6.75;;;20.70;99.90;;;;;;5115790;28;20532;-71
2023/05/05 09:53:17;;;;;;;10.37;6.90;;;20.70;99.90;;;;;;5115689;28;20036;-71
2023/05/05 09:55:52;;;;;;;8.47;5.93;;;20.80;99.90;;;;;;5116061;28;20042;-71
2023/05/05 09:58:20;;;;;;;9.60;7.20;;;20.80;99.90;;;;;;5115795;28;20043;-71
2023/05/05 10:00:46;;;;;;;11.68;7.05;;;20.90;99.90;;;;;;5115658;28;20164;-71
2023/05/05 10:03:12;;;;;;;9.32;7.15;;;20.90;99.90;;;;;;5114497;28;20090;-71
2023/05/05 10:05:52;;;;;;;9.20;7.57;;;21.10;99.90;;;;;;5115622;28;20082;-71
2023/05/05 10:08:19;;;;;;;13.70;7.97;;;21.20;99.90;;;;;;5115817;27;20075;-71
2023/05/05 10:10:51;;;;;;;10.43;8.07;;;21.30;99.90;;;;;;5115673;28;20035;-71
2023/05/05 10:13:19;;;;;;;15.30;7.97;;;21.30;99.90;;;;;;5115684;28;20130;-71
2023/05/05 10:15:47;;;;;;;11.07;7.68;;;21.30;99.90;;;;;;5115583;28;20079;-71
2023/05/05 10:18:18;;;;;;;11.35;7.78;;;21.30;99.90;;;;;;5115602;28;20039;-72
2023/05/05 10:20:47;;;;;;;9.48;7.72;;;21.50;99.90;;;;;;5116205;28;20051;-72
2023/05/05 10:23:17;;;;;;;10.65;7.82;;;21.40;99.90;;;;;;5115462;28;20035;-71
2023/05/05 10:25:50;;;;;;;9.55;7.45;;;21.50;99.90;;;;;;5115325;28;20050;-71
2023/05/05 10:28:28;;;;;;;11.98;7.93;;;21.70;99.90;;;;;;5114988;28;20128;-71
2023/05/05 10:30:57;;;;;;;11.98;7.55;;;21.90;99.90;;;;;;5115094;28;20185;-71
2023/05/05 10:33:51;;;;;;;11.75;7.85;;;22.00;99.90;;;;;;5115226;28;20101;-72
2023/05/05 10:36:18;;;;;;;11.00;8.00;;;22.10;99.90;;;;;;5115279;27;20122;-71
2023/05/05 10:38:45;;;;;;;10.20;7.25;;;22.00;99.90;;;;;;5115124;28;20039;-71
2023/05/05 10:41:12;;;;;;;10.02;7.10;;;22.00;99.90;;;;;;5115195;28;20044;-71
2023/05/05 10:43:38;;;;;;;12.32;7.72;;;22.10;99.90;;;;;;5114914;28;20069;-71
2023/05/05 10:46:05;;;;;;;10.27;7.63;;;22.20;99.90;;;;;;5114931;28;20046;-71
2023/05/05 10:48:36;;;;;;;8.65;6.38;;;22.40;99.90;;;;;;5115308;28;20043;-71
2023/05/05 10:51:40;;;;;;;9.00;5.97;;;22.40;99.90;;;;;;5114926;28;20081;-71
2023/05/05 10:54:42;;;;;;;8.38;6.63;;;22.50;99.90;;;;;;5102602;28;20070;-71
2023/05/05 10:57:10;;;;;;;10.38;6.43;;;22.50;99.90;;;;;;5114848;28;20067;-71
2023/05/05 10:59:35;;;;;;;9.38;6.75;;;22.40;99.90;;;;;;5114850;28;20043;-71
2023/05/05 11:02:17;;;;;;;8.30;6.40;;;22.40;99.90;;;;;;5113596;28;20475;-71
2023/05/05 11:05:01;;;;;;;9.23;6.38;;;22.30;99.90;;;;;;5114772;28;20054;-71
2023/05/05 11:07:28;;;;;;;8.75;5.55;;;22.40;99.90;;;;;;5115282;28;20126;-71
2023/05/05 11:10:01;;;;;;;7.10;4.20;;;22.60;99.90;;;;;;5114563;28;20531;-71
2023/05/05 11:12:28;;;;;;;9.55;6.20;;;22.80;99.90;;;;;;5114746;28;20415;-72
2023/05/05 11:15:12;;;;;;;;;;;23.00;99.90;;;;;;5114841;28;20127;-71
2023/05/05 11:17:45;;;;;;;4.57;2.97;;;23.10;99.90;;;;;;5114451;28;19916;-71
2023/05/05 11:20:11;;;;;;;2.60;1.60;;;23.10;99.90;;;;;;5114501;28;20084;-71
2023/05/05 11:23:11;;;;;;;2.00;1.30;;;23.00;99.90;;;;;;5114523;28;20044;-71
2023/05/05 11:25:40;;;;;;;4.22;1.98;;;22.80;99.90;;;;;;5114976;28;20046;-71
2023/05/05 11:28:07;;;;;;;2.58;1.58;;;22.90;99.90;;;;;;5114207;28;20101;-71
2023/05/05 11:30:33;;;;;;;3.42;1.52;;;22.80;99.90;;;;;;5114196;28;20039;-71
2023/05/05 11:33:30;;;;;;;3.50;1.75;;;22.50;99.90;;;;;;5114283;28;20036;-71
2023/05/05 11:36:00;;;;;;;3.85;2.03;;;22.60;99.90;;;;;;5114107;28;20043;-71
2023/05/05 11:38:32;;;;;;;5.40;2.55;;;22.50;99.90;;;;;;5114230;28;20079;-71
2023/05/05 11:41:14;;;;;;;5.28;2.67;;;22.50;99.90;;;;;;5113747;28;20048;-71
2023/05/05 11:43:41;;;;;;;5.10;2.92;;;22.50;99.90;;;;;;5114340;28;20040;-71
2023/05/05 11:46:14;;;;;;;4.18;2.40;;;22.30;99.90;;;;;;5114166;28;20039;-71
2023/05/05 11:48:47;;;;;;;6.00;2.50;;;22.20;99.90;;;;;;5114650;28;20050;-71
2023/05/05 11:51:13;;;;;;;6.22;2.28;;;22.10;99.90;;;;;;5114072;28;20074;-71
2023/05/05 11:53:43;;;;;;;;;;;22.10;99.90;;;;;;5114472;28;20085;-71
2023/05/05 11:56:10;;;;;;;3.55;2.10;;;21.90;99.90;;;;;;5113712;28;19923;-71
2023/05/05 11:58:36;;;;;;;3.30;1.85;;;21.90;99.90;;;;;;5113819;28;20040;-71
2023/05/05 12:01:08;;;;;;;3.50;2.20;;;21.90;99.90;;;;;;5113922;28;20093;-71
2023/05/05 12:03:37;;;;;;;7.63;2.38;;;21.70;99.90;;;;;;5113931;28;20056;-71
2023/05/05 12:06:07;;;;;;;5.32;2.17;;;21.70;99.90;;;;;;5113845;28;20130;-72
2023/05/05 12:08:42;;;;;;;4.72;2.00;;;21.50;99.90;;;;;;5113879;28;20071;-71
2023/05/05 12:11:09;;;;;;;3.47;1.90;;;21.50;99.90;;;;;;5113886;28;20049;-71
2023/05/05 12:13:35;;;;;;;4.25;1.80;;;21.30;99.90;;;;;;5113802;28;20071;-71
2023/05/05 12:16:14;;;;;;;4.17;2.00;;;21.30;99.90;;;;;;5113662;28;20082;-71
2023/05/05 12:18:40;;;;;;;5.80;1.75;;;21.20;99.90;;;;;;5113715;28;20049;-71
2023/05/05 12:21:16;;;;;;;3.85;2.08;;;21.10;99.90;;;;;;5113773;28;20040;-71
2023/05/05 12:23:42;;;;;;;4.63;1.73;;;21.00;99.90;;;;;;5113505;28;20441;-71
2023/05/05 12:26:26;;;;;;;3.63;2.10;;;21.00;99.90;;;;;;5113577;28;20119;-71
2023/05/05 12:28:52;;;;;;;3.60;2.00;;;20.80;99.90;;;;;;5113782;28;20115;-71
2023/05/05 12:31:18;;;;;;;3.80;2.05;;;20.70;99.90;;;;;;5113709;28;20427;-71
2023/05/05 12:33:44;;;;;;;4.03;2.30;;;20.50;99.90;;;;;;5113778;28;20039;-71
2023/05/05 12:36:11;;;;;;;6.47;2.77;;;20.40;99.90;;;;;;5113731;28;20131;-71
2023/05/05 12:38:37;;;;;;;4.25;2.20;;;20.30;99.90;;;;;;5113646;28;20039;-71
2023/05/05 12:41:03;;;;;;;4.68;2.03;;;20.20;99.90;;;;;;5113580;28;20035;-71
2023/05/05 12:43:33;;;;;;;2.13;1.67;;;20.10;99.90;;;;;;5113995;28;20118;-71
2023/05/05 12:46:10;;;;;;;4.85;1.90;;;20.00;99.90;;;;;;5112407;28;20438;-70
2023/05/05 12:48:38;;;;;;;3.97;2.20;;;20.00;99.90;;;;;;5113463;28;20055;-70
2023/05/05 12:51:21;;;;;;;3.42;1.88;;;19.90;99.90;;;;;;5114525;28;20044;-70
2023/05/05 12:53:59;;;;;;;3.15;1.67;;;19.90;99.90;;;;;;5117625;28;20374;-70